Weather observations for the past three days for
Arlington Municipal Airport
Metric (Imperial)
Date Time (cdt) Wind (kph) Vis. (km) Weather Sky Cond. Temperature (ºC) Relative Humidity Wind Chill (°C) Heat Index (°C) Pressure Precipitation (cm)
Air Dwpt 6 hour altimeter (cm) sea level (mb) 1 hr 3 hr 6 hr
Max. Min.
03 02:53 Calm 16.09 Fair CLR 26.1 21.1 74% 28 75.97 1011.6
03 01:53 S 6 16.09 Fair CLR 26.7 21.1 71% 28 75.97 1011.8
03 00:53 SE 11 16.09 Fair CLR 27.2 21.1 36.7 27.2 69% 29 76.02 1012.3
02 23:53 E 13 16.09 Fair CLR 28.3 20.6 63% 30 76.02 1012.4
02 22:53 E 15 16.09 Fair CLR 29.4 20.6 59% 32 76 1012.2
02 21:53 E 22 G 31 16.09 Fair CLR 31.1 20.6 54% 34 75.97 1011.7
02 20:53 E 15 16.09 Fair CLR 32.2 20.6 50% 35 75.92 1010.9
02 19:53 SE 22 G 41 16.09 Partly Cloudy FEW090 SCT110 33.9 20 44% 36 75.9 1010.6
02 18:53 E 19 G 33 16.09 Partly Cloudy FEW075 SCT095 36.7 18.3 37.8 35 34% 38 75.84 1010.0
02 17:53 Vrbl 9 16.09 Fair CLR 37.2 17.8 32% 39 75.84 1010.0
02 16:53 NE 19 G 33 16.09 Fair CLR 37.2 17.8 32% 39 75.87 1010.4
02 15:53 NE 20 16.09 Fair CLR 37.2 18.3 33% 39 75.9 1010.9
02 14:53 N 15 G 26 16.09 Fair CLR 36.7 18.3 34% 38 75.97 1011.7
02 13:53 N 15 16.09 Fair CLR 35.6 19.4 39% 38 76.05 1012.7
02 12:53 N 15 16.09 Fair CLR 35 19.4 35 25.6 40% 37 76.15 1014.0
02 11:53 NE 11 16.09 Fair CLR 33.9 20 44% 36 76.2 1014.8
02 10:53 Vrbl 9 16.09 Fair CLR 32.2 20 48% 34 76.23 1015.2
02 09:53 SE 6 16.09 Fair CLR 30 20.6 57% 32 76.23 1015.1
02 08:53 E 9 16.09 Fair CLR 28.3 21.1 65% 31 76.23 1015.0
02 07:53 E 6 16.09 Fair CLR 27.2 21.7 72% 29 76.2 1014.7
02 06:53 E 7 16.09 Fair CLR 26.1 21.1 30 25.6 74% 28 76.17 1014.3
02 05:53 Calm 16.09 Fair CLR 26.1 21.1 74% 28 76.17 1014.3
02 04:53 E 7 16.09 Fair CLR 27.2 20.6 67% 29 76.17 1014.3
02 03:53 S 7 16.09 Fair CLR 27.8 20.6 65% 30 76.15 1014.1
02 02:53 SE 9 16.09 Fair CLR 28.9 20.6 61% 31 76.15 1014.3
02 01:53 SE 15 16.09 Fair CLR 30 20 55% 32 76.17 1014.2
02 00:53 SE 15 16.09 Fair CLR 30 20.6 36.1 30 57% 32 76.15 1014.1
01 23:53 SE 17 16.09 Fair CLR 30.6 20 53% 33 76.12 1013.8
01 22:53 SE 9 16.09 Fair CLR 30.6 20 53% 33 76.1 1013.5
01 21:53 E 9 16.09 A Few Clouds FEW080 32.2 19.4 47% 34 76.07 1013.0
01 20:53 E 9 16.09 Fair CLR 32.8 18.9 44% 34 76 1012.2
01 19:53 E 13 16.09 Fair CLR 35 18.3 37% 36 75.97 1011.7
01 18:53 E 11 16.09 Fair CLR 36.1 18.9 37.8 35 36% 38 76 1012.0
01 17:53 E 24 16.09 Fair CLR 37.2 18.3 33% 39 76 1012.1
01 16:53 SE 13 16.09 Fair CLR 36.7 17.8 33% 38 76.02 1012.3
01 15:53 E 15 16.09 Fair CLR 37.2 18.3 33% 39 76.05 1012.7
01 14:53 NE 11 16.09 Fair CLR 36.7 18.3 34% 38 76.1 1013.4
01 13:53 E 11 16.09 Fair CLR 36.1 18.9 36% 38 76.15 1014.3
01 12:53 E 11 16.09 Fair CLR 35.6 19.4 36.1 25.6 39% 38 76.25 1015.3
01 11:53 SE 15 16.09 Fair CLR 35 20 41% 38 76.3 1016.0
01 10:53 Vrbl 9 16.09 Fair CLR 32.8 20.6 49% 36 76.33 1016.3
01 09:53 S 7 16.09 Fair CLR 31.7 21.1 53% 35 76.33 1016.3
01 08:53 SE 11 16.09 Fair CLR 28.9 21.7 65% 32 76.33 1016.5
01 07:53 Calm 16.09 A Few Clouds FEW110 26.7 20.6 69% 28 76.3 1016.1
01 06:53 Calm 16.09 A Few Clouds FEW110 25.6 20 30 25.6 71% 27 76.25 1015.4
01 05:53 SE 7 16.09 Fair CLR 26.7 20 67% 28 76.2 1014.9
01 04:53 S 6 16.09 Fair CLR 28.3 20 61% 30 76.2 1014.8
01 03:53 S 9 16.09 A Few Clouds FEW090 28.9 19.4 57% 30 76.2 1014.7
01 02:53 S 17 16.09 A Few Clouds FEW085 29.4 19.4 55% 31 76.2 1014.8
01 01:53 SE 11 16.09 Mostly Cloudy BKN085 29.4 17.8 50% 30 76.17 1014.5
01 00:53 SE 6 16.09 Fair CLR 27.2 17.2 36.7 26.7 54% 28 76.15 1014.0
31 23:53 Calm 16.09 Fair CLR 26.7 16.1 52% 27 76.12 1013.6
31 22:53 Calm 16.09 Fair CLR 27.8 15.6 47% 28 76.12 1013.6
31 21:53 Calm 16.09 Fair CLR 30 15 40% 30 76.1 1013.3
31 20:53 SE 6 16.09 Fair CLR 32.2 15 35% 32 76.05 1012.6
31 19:53 E 17 16.09 Fair CLR 35 15 30% 35 76.02 1012.4
31 18:53 SE 17 16.09 Fair CLR 36.7 15 38.3 35.6 27% 37 76.02 1012.2
31 17:53 SE 15 G 30 16.09 Fair CLR 37.2 15 27% 37 76.02 1012.4
31 16:53 SE 17 16.09 A Few Clouds FEW100 37.8 15 26% 38 76.05 1012.7
31 15:53 SE 26 16.09 A Few Clouds FEW085 37.8 15.6 27% 38 76.1 1013.4
31 14:53 SE 17 G 31 16.09 A Few Clouds FEW095 37.2 15 27% 37 76.15 1014.1
31 13:53 E 19 G 35 16.09 Mostly Cloudy SCT080 BKN100 36.7 16.7 31% 37 76.2 1014.6
31 12:53 SE 19 G 33 16.09 Fair CLR 35.6 17.8 36.1 25.6 35% 37 76.28 1015.7
31 11:53 S 13 16.09 Fair CLR 35 17.2 35% 36 76.33 1016.4
31 10:53 Calm 16.09 Fair CLR 32.8 17.8 41% 34 76.33 1016.4
31 09:53 Vrbl 9 16.09 Fair CLR 31.1 20.6 54% 34 76.3 1016.2
31 08:53 S 11 16.09 Fair CLR 28.3 21.1 65% 31 76.3 1016.0
31 07:53 S 13 16.09 Fair CLR 26.7 20.6 69% 28 76.23 1015.1
31 06:53 S 9 16.09 Fair CLR 25.6 20 29.4 25.6 71% 27 76.17 1014.5
31 05:53 S 9 16.09 Fair CLR 26.1 19.4 67% 27 76.15 1014.0
31 04:53 S 9 16.09 Fair CLR 27.2 19.4 62% 29 76.12 1013.9
Date Time (cdt) Wind (kph) Vis. (km) Weather Sky Cond. Air Dwpt Max. Min. Relative Humidity Wind Chill (°C) Heat Index (°C) altimeter (cm) sea level (mb) 1 hr 3 hr 6 hr
6 hour
Temperature (ºC) Pressure Precipitation (cm)